sensor_id;sensor_type;location;lat;lon;timestamp;P1;durP1;ratioP1;P2;durP2;ratioP2
35847;SDS011;22332;51.954;20.118;2022-08-19T00:00:43;10.60;;;9.30;;
35847;SDS011;22332;51.954;20.118;2022-08-19T00:03:48;9.30;;;8.40;;
35847;SDS011;22332;51.954;20.118;2022-08-19T00:06:53;10.00;;;8.90;;
35847;SDS011;22332;51.954;20.118;2022-08-19T00:09:59;10.30;;;9.30;;
35847;SDS011;22332;51.954;20.118;2022-08-19T00:13:04;11.50;;;9.40;;
35847;SDS011;22332;51.954;20.118;2022-08-19T00:16:10;9.90;;;8.90;;
35847;SDS011;22332;51.954;20.118;2022-08-19T00:19:15;9.80;;;8.70;;
35847;SDS011;22332;51.954;20.118;2022-08-19T00:22:21;10.70;;;8.80;;
35847;SDS011;22332;51.954;20.118;2022-08-19T00:25:26;10.30;;;9.30;;
35847;SDS011;22332;51.954;20.118;2022-08-19T00:28:32;11.20;;;9.60;;
35847;SDS011;22332;51.954;20.118;2022-08-19T00:31:38;10.90;;;9.30;;
35847;SDS011;22332;51.954;20.118;2022-08-19T00:34:44;9.90;;;8.90;;
35847;SDS011;22332;51.954;20.118;2022-08-19T00:37:49;12.80;;;8.70;;
35847;SDS011;22332;51.954;20.118;2022-08-19T00:40:55;9.70;;;8.70;;
35847;SDS011;22332;51.954;20.118;2022-08-19T00:44:03;9.60;;;8.60;;
35847;SDS011;22332;51.954;20.118;2022-08-19T00:47:10;11.60;;;9.30;;
35847;SDS011;22332;51.954;20.118;2022-08-19T00:50:16;10.70;;;9.60;;
35847;SDS011;22332;51.954;20.118;2022-08-19T00:53:24;10.10;;;9.00;;
35847;SDS011;22332;51.954;20.118;2022-08-19T00:56:32;10.00;;;8.60;;
35847;SDS011;22332;51.954;20.118;2022-08-19T00:59:40;8.60;;;7.60;;
35847;SDS011;22332;51.954;20.118;2022-08-19T01:02:48;10.10;;;8.50;;
35847;SDS011;22332;51.954;20.118;2022-08-19T01:05:53;9.70;;;8.80;;
35847;SDS011;22332;51.954;20.118;2022-08-19T01:08:59;10.20;;;9.20;;
35847;SDS011;22332;51.954;20.118;2022-08-19T01:12:05;12.10;;;10.10;;
35847;SDS011;22332;51.954;20.118;2022-08-19T01:15:12;9.50;;;8.30;;
35847;SDS011;22332;51.954;20.118;2022-08-19T01:18:20;8.30;;;7.50;;
35847;SDS011;22332;51.954;20.118;2022-08-19T01:21:29;9.60;;;8.60;;
35847;SDS011;22332;51.954;20.118;2022-08-19T01:24:38;11.00;;;9.00;;
35847;SDS011;22332;51.954;20.118;2022-08-19T01:27:45;9.40;;;8.50;;
35847;SDS011;22332;51.954;20.118;2022-08-19T01:30:52;11.20;;;10.10;;
35847;SDS011;22332;51.954;20.118;2022-08-19T01:33:59;11.80;;;9.30;;
35847;SDS011;22332;51.954;20.118;2022-08-19T01:37:07;9.30;;;8.30;;
35847;SDS011;22332;51.954;20.118;2022-08-19T01:40:13;10.30;;;9.30;;
35847;SDS011;22332;51.954;20.118;2022-08-19T01:43:19;10.90;;;9.50;;
35847;SDS011;22332;51.954;20.118;2022-08-19T01:46:25;10.80;;;9.80;;
35847;SDS011;22332;51.954;20.118;2022-08-19T01:49:31;11.60;;;10.10;;
35847;SDS011;22332;51.954;20.118;2022-08-19T01:52:36;9.90;;;8.90;;
35847;SDS011;22332;51.954;20.118;2022-08-19T01:55:43;10.50;;;9.40;;
35847;SDS011;22332;51.954;20.118;2022-08-19T01:58:51;10.80;;;8.80;;
35847;SDS011;22332;51.954;20.118;2022-08-19T02:02:00;10.70;;;9.60;;
35847;SDS011;22332;51.954;20.118;2022-08-19T02:05:09;10.20;;;9.30;;
35847;SDS011;22332;51.954;20.118;2022-08-19T02:08:15;11.50;;;10.10;;
35847;SDS011;22332;51.954;20.118;2022-08-19T02:11:22;10.20;;;9.20;;
35847;SDS011;22332;51.954;20.118;2022-08-19T02:14:30;9.40;;;8.30;;
35847;SDS011;22332;51.954;20.118;2022-08-19T02:17:37;9.50;;;8.60;;
35847;SDS011;22332;51.954;20.118;2022-08-19T02:20:43;10.70;;;9.10;;
35847;SDS011;22332;51.954;20.118;2022-08-19T02:23:50;12.00;;;10.80;;
35847;SDS011;22332;51.954;20.118;2022-08-19T02:26:56;11.40;;;10.10;;
35847;SDS011;22332;51.954;20.118;2022-08-19T02:30:03;10.40;;;9.20;;
35847;SDS011;22332;51.954;20.118;2022-08-19T02:33:11;11.00;;;8.90;;
35847;SDS011;22332;51.954;20.118;2022-08-19T02:36:17;10.70;;;9.20;;
35847;SDS011;22332;51.954;20.118;2022-08-19T02:39:23;10.20;;;9.10;;
35847;SDS011;22332;51.954;20.118;2022-08-19T02:42:29;10.70;;;9.60;;
35847;SDS011;22332;51.954;20.118;2022-08-19T02:45:35;11.30;;;10.00;;
35847;SDS011;22332;51.954;20.118;2022-08-19T02:48:42;9.60;;;8.60;;
35847;SDS011;22332;51.954;20.118;2022-08-19T02:51:48;9.70;;;8.70;;
35847;SDS011;22332;51.954;20.118;2022-08-19T02:54:54;9.80;;;8.80;;
35847;SDS011;22332;51.954;20.118;2022-08-19T02:58:00;11.10;;;9.30;;
35847;SDS011;22332;51.954;20.118;2022-08-19T03:01:05;11.40;;;10.10;;
35847;SDS011;22332;51.954;20.118;2022-08-19T03:04:12;11.70;;;10.50;;
35847;SDS011;22332;51.954;20.118;2022-08-19T03:07:19;9.90;;;8.90;;
35847;SDS011;22332;51.954;20.118;2022-08-19T03:10:24;10.70;;;8.70;;
35847;SDS011;22332;51.954;20.118;2022-08-19T03:13:29;10.70;;;9.60;;
35847;SDS011;22332;51.954;20.118;2022-08-19T03:16:39;13.00;;;10.40;;
35847;SDS011;22332;51.954;20.118;2022-08-19T03:22:51;13.60;;;10.40;;
35847;SDS011;22332;51.954;20.118;2022-08-19T03:25:56;10.40;;;9.30;;
35847;SDS011;22332;51.954;20.118;2022-08-19T03:29:02;9.80;;;8.80;;
35847;SDS011;22332;51.954;20.118;2022-08-19T03:32:09;15.50;;;10.90;;
35847;SDS011;22332;51.954;20.118;2022-08-19T03:35:16;11.70;;;9.90;;
35847;SDS011;22332;51.954;20.118;2022-08-19T03:38:21;13.80;;;11.00;;
35847;SDS011;22332;51.954;20.118;2022-08-19T03:41:28;11.10;;;9.60;;
35847;SDS011;22332;51.954;20.118;2022-08-19T03:44:35;12.20;;;9.10;;
35847;SDS011;22332;51.954;20.118;2022-08-19T03:47:41;11.00;;;9.60;;
35847;SDS011;22332;51.954;20.118;2022-08-19T03:50:47;11.80;;;9.50;;
35847;SDS011;22332;51.954;20.118;2022-08-19T03:53:52;14.60;;;10.50;;
35847;SDS011;22332;51.954;20.118;2022-08-19T03:56:58;11.50;;;10.30;;
35847;SDS011;22332;51.954;20.118;2022-08-19T04:00:06;9.80;;;8.80;;
35847;SDS011;22332;51.954;20.118;2022-08-19T04:03:14;11.90;;;9.20;;
35847;SDS011;22332;51.954;20.118;2022-08-19T04:06:21;16.40;;;11.20;;
35847;SDS011;22332;51.954;20.118;2022-08-19T04:09:28;12.50;;;10.10;;
35847;SDS011;22332;51.954;20.118;2022-08-19T04:12:34;10.90;;;9.80;;
35847;SDS011;22332;51.954;20.118;2022-08-19T04:15:40;10.10;;;9.10;;
35847;SDS011;22332;51.954;20.118;2022-08-19T04:18:47;11.60;;;10.00;;
35847;SDS011;22332;51.954;20.118;2022-08-19T04:21:54;11.50;;;10.20;;
35847;SDS011;22332;51.954;20.118;2022-08-19T04:24:59;12.20;;;11.00;;
35847;SDS011;22332;51.954;20.118;2022-08-19T04:28:05;12.50;;;10.30;;
35847;SDS011;22332;51.954;20.118;2022-08-19T04:31:13;10.80;;;9.20;;
35847;SDS011;22332;51.954;20.118;2022-08-19T04:34:21;13.10;;;10.40;;
35847;SDS011;22332;51.954;20.118;2022-08-19T04:37:28;11.60;;;9.60;;
35847;SDS011;22332;51.954;20.118;2022-08-19T04:40:39;11.40;;;10.20;;
35847;SDS011;22332;51.954;20.118;2022-08-19T04:44:06;10.80;;;9.20;;
35847;SDS011;22332;51.954;20.118;2022-08-19T04:47:12;9.30;;;8.30;;
35847;SDS011;22332;51.954;20.118;2022-08-19T04:50:17;13.30;;;10.30;;
35847;SDS011;22332;51.954;20.118;2022-08-19T04:53:25;12.60;;;9.70;;
35847;SDS011;22332;51.954;20.118;2022-08-19T04:56:31;11.40;;;10.10;;
35847;SDS011;22332;51.954;20.118;2022-08-19T04:59:38;11.00;;;9.90;;
35847;SDS011;22332;51.954;20.118;2022-08-19T05:02:43;10.50;;;8.80;;
35847;SDS011;22332;51.954;20.118;2022-08-19T05:05:49;10.60;;;8.70;;
35847;SDS011;22332;51.954;20.118;2022-08-19T05:08:54;11.70;;;9.20;;
35847;SDS011;22332;51.954;20.118;2022-08-19T05:12:00;11.00;;;9.90;;
35847;SDS011;22332;51.954;20.118;2022-08-19T05:15:07;12.80;;;9.80;;
35847;SDS011;22332;51.954;20.118;2022-08-19T05:18:13;12.80;;;9.80;;
35847;SDS011;22332;51.954;20.118;2022-08-19T05:21:36;10.90;;;9.40;;
35847;SDS011;22332;51.954;20.118;2022-08-19T05:25:00;12.60;;;9.00;;
35847;SDS011;22332;51.954;20.118;2022-08-19T05:28:10;11.10;;;9.90;;
35847;SDS011;22332;51.954;20.118;2022-08-19T05:31:16;10.60;;;9.60;;
35847;SDS011;22332;51.954;20.118;2022-08-19T05:34:22;11.60;;;9.10;;
35847;SDS011;22332;51.954;20.118;2022-08-19T05:37:29;13.50;;;9.10;;
35847;SDS011;22332;51.954;20.118;2022-08-19T05:40:35;9.00;;;8.10;;
35847;SDS011;22332;51.954;20.118;2022-08-19T05:43:41;8.60;;;7.80;;
35847;SDS011;22332;51.954;20.118;2022-08-19T05:46:46;10.50;;;8.80;;
35847;SDS011;22332;51.954;20.118;2022-08-19T05:49:55;10.80;;;9.70;;
35847;SDS011;22332;51.954;20.118;2022-08-19T05:53:00;11.20;;;9.20;;
35847;SDS011;22332;51.954;20.118;2022-08-19T05:56:06;10.00;;;9.00;;
35847;SDS011;22332;51.954;20.118;2022-08-19T05:59:13;12.00;;;9.10;;
35847;SDS011;22332;51.954;20.118;2022-08-19T06:02:20;14.00;;;9.60;;
35847;SDS011;22332;51.954;20.118;2022-08-19T06:05:25;10.70;;;9.10;;
35847;SDS011;22332;51.954;20.118;2022-08-19T06:08:31;11.30;;;9.50;;
35847;SDS011;22332;51.954;20.118;2022-08-19T06:11:38;12.40;;;9.90;;
35847;SDS011;22332;51.954;20.118;2022-08-19T06:14:45;10.20;;;9.20;;
35847;SDS011;22332;51.954;20.118;2022-08-19T06:17:55;11.30;;;9.00;;
35847;SDS011;22332;51.954;20.118;2022-08-19T06:21:00;9.40;;;8.30;;
35847;SDS011;22332;51.954;20.118;2022-08-19T06:24:08;10.30;;;8.80;;
35847;SDS011;22332;51.954;20.118;2022-08-19T06:27:14;12.70;;;9.30;;
35847;SDS011;22332;51.954;20.118;2022-08-19T06:30:20;10.20;;;9.10;;
35847;SDS011;22332;51.954;20.118;2022-08-19T06:33:25;11.20;;;9.00;;
35847;SDS011;22332;51.954;20.118;2022-08-19T06:36:31;11.60;;;9.60;;
35847;SDS011;22332;51.954;20.118;2022-08-19T06:39:39;10.60;;;9.20;;
35847;SDS011;22332;51.954;20.118;2022-08-19T06:42:46;11.00;;;8.80;;
35847;SDS011;22332;51.954;20.118;2022-08-19T06:45:51;10.40;;;8.80;;
35847;SDS011;22332;51.954;20.118;2022-08-19T06:48:57;10.00;;;8.90;;
35847;SDS011;22332;51.954;20.118;2022-08-19T06:52:03;10.40;;;8.70;;
35847;SDS011;22332;51.954;20.118;2022-08-19T06:55:09;11.80;;;9.00;;
35847;SDS011;22332;51.954;20.118;2022-08-19T06:58:14;11.20;;;9.40;;
35847;SDS011;22332;51.954;20.118;2022-08-19T07:01:20;10.80;;;9.70;;
35847;SDS011;22332;51.954;20.118;2022-08-19T07:04:26;11.80;;;8.60;;
35847;SDS011;22332;51.954;20.118;2022-08-19T07:07:34;11.40;;;9.40;;
35847;SDS011;22332;51.954;20.118;2022-08-19T07:10:43;11.00;;;9.80;;
35847;SDS011;22332;51.954;20.118;2022-08-19T07:13:49;12.00;;;9.40;;
35847;SDS011;22332;51.954;20.118;2022-08-19T07:16:56;10.60;;;8.70;;
35847;SDS011;22332;51.954;20.118;2022-08-19T07:20:02;9.90;;;8.90;;
35847;SDS011;22332;51.954;20.118;2022-08-19T07:23:10;10.60;;;9.40;;
35847;SDS011;22332;51.954;20.118;2022-08-19T07:26:16;10.30;;;9.30;;
35847;SDS011;22332;51.954;20.118;2022-08-19T07:29:23;10.10;;;9.00;;
35847;SDS011;22332;51.954;20.118;2022-08-19T07:32:28;10.00;;;8.30;;
35847;SDS011;22332;51.954;20.118;2022-08-19T07:35:34;9.20;;;8.30;;
35847;SDS011;22332;51.954;20.118;2022-08-19T07:38:41;11.80;;;8.50;;
35847;SDS011;22332;51.954;20.118;2022-08-19T07:41:49;10.50;;;8.30;;
35847;SDS011;22332;51.954;20.118;2022-08-19T07:44:55;9.20;;;8.30;;
35847;SDS011;22332;51.954;20.118;2022-08-19T07:48:01;9.00;;;8.10;;
35847;SDS011;22332;51.954;20.118;2022-08-19T07:51:07;12.00;;;8.70;;
35847;SDS011;22332;51.954;20.118;2022-08-19T07:54:14;12.80;;;8.40;;
35847;SDS011;22332;51.954;20.118;2022-08-19T07:57:20;9.60;;;8.10;;
35847;SDS011;22332;51.954;20.118;2022-08-19T08:00:26;9.00;;;8.10;;
35847;SDS011;22332;51.954;20.118;2022-08-19T08:03:31;11.90;;;8.90;;
35847;SDS011;22332;51.954;20.118;2022-08-19T08:06:55;10.50;;;8.60;;
35847;SDS011;22332;51.954;20.118;2022-08-19T08:10:17;9.20;;;8.30;;
35847;SDS011;22332;51.954;20.118;2022-08-19T08:13:23;10.70;;;8.40;;
35847;SDS011;22332;51.954;20.118;2022-08-19T08:16:29;10.00;;;7.50;;
35847;SDS011;22332;51.954;20.118;2022-08-19T08:19:35;9.30;;;7.60;;
35847;SDS011;22332;51.954;20.118;2022-08-19T08:22:44;9.20;;;8.30;;
35847;SDS011;22332;51.954;20.118;2022-08-19T08:26:07;9.60;;;8.00;;
35847;SDS011;22332;51.954;20.118;2022-08-19T08:29:13;11.50;;;8.00;;
35847;SDS011;22332;51.954;20.118;2022-08-19T08:32:18;10.00;;;8.10;;
35847;SDS011;22332;51.954;20.118;2022-08-19T08:35:24;11.60;;;7.70;;
35847;SDS011;22332;51.954;20.118;2022-08-19T08:38:29;9.10;;;8.10;;
35847;SDS011;22332;51.954;20.118;2022-08-19T08:41:39;9.60;;;8.20;;
35847;SDS011;22332;51.954;20.118;2022-08-19T08:44:50;9.00;;;8.00;;
35847;SDS011;22332;51.954;20.118;2022-08-19T08:48:02;8.60;;;7.90;;
35847;SDS011;22332;51.954;20.118;2022-08-19T08:51:18;9.00;;;8.20;;
35847;SDS011;22332;51.954;20.118;2022-08-19T08:54:30;9.10;;;8.20;;
35847;SDS011;22332;51.954;20.118;2022-08-19T08:57:49;9.00;;;8.10;;
35847;SDS011;22332;51.954;20.118;2022-08-19T09:00:59;9.30;;;8.10;;
35847;SDS011;22332;51.954;20.118;2022-08-19T09:04:05;9.90;;;8.00;;
35847;SDS011;22332;51.954;20.118;2022-08-19T09:07:17;10.40;;;8.00;;
35847;SDS011;22332;51.954;20.118;2022-08-19T09:10:31;9.10;;;8.00;;
35847;SDS011;22332;51.954;20.118;2022-08-19T09:13:44;8.60;;;7.80;;
35847;SDS011;22332;51.954;20.118;2022-08-19T09:17:00;9.80;;;7.70;;
35847;SDS011;22332;51.954;20.118;2022-08-19T09:20:14;8.50;;;7.30;;
35847;SDS011;22332;51.954;20.118;2022-08-19T09:23:23;8.40;;;7.50;;
35847;SDS011;22332;51.954;20.118;2022-08-19T09:26:28;9.40;;;7.40;;
35847;SDS011;22332;51.954;20.118;2022-08-19T09:29:35;8.80;;;6.90;;
35847;SDS011;22332;51.954;20.118;2022-08-19T09:32:40;8.30;;;6.90;;
35847;SDS011;22332;51.954;20.118;2022-08-19T09:35:45;9.20;;;7.00;;
35847;SDS011;22332;51.954;20.118;2022-08-19T09:38:51;7.90;;;7.10;;
35847;SDS011;22332;51.954;20.118;2022-08-19T09:41:56;7.90;;;7.10;;
35847;SDS011;22332;51.954;20.118;2022-08-19T09:45:02;9.30;;;7.20;;
35847;SDS011;22332;51.954;20.118;2022-08-19T09:48:09;9.50;;;6.90;;
35847;SDS011;22332;51.954;20.118;2022-08-19T09:51:15;8.40;;;7.30;;
35847;SDS011;22332;51.954;20.118;2022-08-19T09:54:23;7.60;;;6.90;;
35847;SDS011;22332;51.954;20.118;2022-08-19T09:57:29;7.60;;;6.90;;
35847;SDS011;22332;51.954;20.118;2022-08-19T10:00:35;9.10;;;7.70;;
35847;SDS011;22332;51.954;20.118;2022-08-19T10:03:42;7.80;;;7.00;;
35847;SDS011;22332;51.954;20.118;2022-08-19T10:06:50;7.70;;;7.00;;
35847;SDS011;22332;51.954;20.118;2022-08-19T10:09:59;7.90;;;7.10;;
35847;SDS011;22332;51.954;20.118;2022-08-19T10:13:05;8.00;;;7.20;;
35847;SDS011;22332;51.954;20.118;2022-08-19T10:16:12;7.70;;;6.90;;
35847;SDS011;22332;51.954;20.118;2022-08-19T10:19:20;8.60;;;7.20;;
35847;SDS011;22332;51.954;20.118;2022-08-19T10:22:27;9.60;;;7.20;;
35847;SDS011;22332;51.954;20.118;2022-08-19T10:25:33;7.80;;;7.00;;
35847;SDS011;22332;51.954;20.118;2022-08-19T10:28:38;7.80;;;7.00;;
35847;SDS011;22332;51.954;20.118;2022-08-19T10:31:44;8.10;;;7.10;;
35847;SDS011;22332;51.954;20.118;2022-08-19T10:34:50;9.10;;;6.70;;
35847;SDS011;22332;51.954;20.118;2022-08-19T10:37:56;7.80;;;6.90;;
35847;SDS011;22332;51.954;20.118;2022-08-19T10:41:11;8.00;;;7.20;;
35847;SDS011;22332;51.954;20.118;2022-08-19T10:44:18;8.90;;;7.50;;
35847;SDS011;22332;51.954;20.118;2022-08-19T10:47:24;8.10;;;7.30;;
35847;SDS011;22332;51.954;20.118;2022-08-19T10:50:29;9.60;;;7.50;;
35847;SDS011;22332;51.954;20.118;2022-08-19T10:53:52;8.40;;;7.40;;
35847;SDS011;22332;51.954;20.118;2022-08-19T10:56:58;8.10;;;7.20;;
35847;SDS011;22332;51.954;20.118;2022-08-19T11:00:05;8.50;;;7.30;;
35847;SDS011;22332;51.954;20.118;2022-08-19T11:03:12;8.30;;;7.10;;
35847;SDS011;22332;51.954;20.118;2022-08-19T11:06:18;8.40;;;7.20;;
35847;SDS011;22332;51.954;20.118;2022-08-19T11:09:24;8.00;;;7.00;;
35847;SDS011;22332;51.954;20.118;2022-08-19T11:12:31;8.50;;;7.10;;
35847;SDS011;22332;51.954;20.118;2022-08-19T11:15:36;7.50;;;6.80;;
35847;SDS011;22332;51.954;20.118;2022-08-19T11:18:42;7.60;;;6.80;;
35847;SDS011;22332;51.954;20.118;2022-08-19T11:21:51;9.00;;;6.90;;
35847;SDS011;22332;51.954;20.118;2022-08-19T11:24:57;8.30;;;7.30;;
35847;SDS011;22332;51.954;20.118;2022-08-19T11:28:03;9.90;;;8.40;;
35847;SDS011;22332;51.954;20.118;2022-08-19T11:31:11;7.50;;;6.70;;
35847;SDS011;22332;51.954;20.118;2022-08-19T11:34:18;9.50;;;7.10;;
35847;SDS011;22332;51.954;20.118;2022-08-19T11:37:25;8.20;;;7.40;;
35847;SDS011;22332;51.954;20.118;2022-08-19T11:40:30;9.30;;;7.00;;
35847;SDS011;22332;51.954;20.118;2022-08-19T11:43:36;11.30;;;7.00;;
35847;SDS011;22332;51.954;20.118;2022-08-19T11:46:43;8.60;;;7.60;;
35847;SDS011;22332;51.954;20.118;2022-08-19T11:49:49;9.30;;;7.50;;
35847;SDS011;22332;51.954;20.118;2022-08-19T11:52:56;9.50;;;7.80;;
35847;SDS011;22332;51.954;20.118;2022-08-19T11:56:03;8.30;;;7.30;;
35847;SDS011;22332;51.954;20.118;2022-08-19T11:59:10;10.90;;;7.20;;
35847;SDS011;22332;51.954;20.118;2022-08-19T12:02:15;14.40;;;8.70;;
35847;SDS011;22332;51.954;20.118;2022-08-19T12:05:21;8.90;;;7.50;;
35847;SDS011;22332;51.954;20.118;2022-08-19T12:08:27;8.30;;;7.50;;
35847;SDS011;22332;51.954;20.118;2022-08-19T12:11:32;9.60;;;7.50;;
35847;SDS011;22332;51.954;20.118;2022-08-19T12:14:39;8.80;;;7.20;;
35847;SDS011;22332;51.954;20.118;2022-08-19T12:17:45;8.30;;;7.20;;
35847;SDS011;22332;51.954;20.118;2022-08-19T12:20:51;7.80;;;7.00;;
35847;SDS011;22332;51.954;20.118;2022-08-19T12:23:58;10.50;;;6.90;;
35847;SDS011;22332;51.954;20.118;2022-08-19T12:27:05;8.10;;;7.30;;
35847;SDS011;22332;51.954;20.118;2022-08-19T12:30:12;8.20;;;7.40;;
35847;SDS011;22332;51.954;20.118;2022-08-19T12:33:18;7.60;;;6.90;;
35847;SDS011;22332;51.954;20.118;2022-08-19T12:36:27;7.90;;;7.20;;
35847;SDS011;22332;51.954;20.118;2022-08-19T12:39:34;11.60;;;7.20;;
35847;SDS011;22332;51.954;20.118;2022-08-19T12:42:41;11.50;;;7.00;;
35847;SDS011;22332;51.954;20.118;2022-08-19T12:45:47;7.50;;;6.90;;
35847;SDS011;22332;51.954;20.118;2022-08-19T12:48:53;9.50;;;6.90;;
35847;SDS011;22332;51.954;20.118;2022-08-19T12:52:00;7.20;;;6.50;;
35847;SDS011;22332;51.954;20.118;2022-08-19T12:55:07;7.60;;;6.70;;
35847;SDS011;22332;51.954;20.118;2022-08-19T12:58:14;7.30;;;6.50;;
35847;SDS011;22332;51.954;20.118;2022-08-19T13:01:19;7.00;;;6.30;;
35847;SDS011;22332;51.954;20.118;2022-08-19T13:04:25;9.50;;;6.60;;
35847;SDS011;22332;51.954;20.118;2022-08-19T13:07:32;8.40;;;6.90;;
35847;SDS011;22332;51.954;20.118;2022-08-19T13:10:38;8.30;;;6.40;;
35847;SDS011;22332;51.954;20.118;2022-08-19T13:13:44;7.30;;;6.10;;
35847;SDS011;22332;51.954;20.118;2022-08-19T13:16:52;8.50;;;6.50;;
35847;SDS011;22332;51.954;20.118;2022-08-19T13:19:58;7.80;;;6.00;;
35847;SDS011;22332;51.954;20.118;2022-08-19T13:23:04;7.00;;;6.40;;
35847;SDS011;22332;51.954;20.118;2022-08-19T13:26:10;7.90;;;6.50;;
35847;SDS011;22332;51.954;20.118;2022-08-19T13:29:16;6.90;;;6.20;;
35847;SDS011;22332;51.954;20.118;2022-08-19T13:32:39;7.00;;;6.20;;
35847;SDS011;22332;51.954;20.118;2022-08-19T13:36:02;10.30;;;6.30;;
35847;SDS011;22332;51.954;20.118;2022-08-19T13:39:10;6.90;;;6.10;;
35847;SDS011;22332;51.954;20.118;2022-08-19T13:42:15;7.70;;;6.40;;
35847;SDS011;22332;51.954;20.118;2022-08-19T13:45:22;7.20;;;6.20;;
35847;SDS011;22332;51.954;20.118;2022-08-19T13:48:30;8.50;;;6.30;;
35847;SDS011;22332;51.954;20.118;2022-08-19T13:51:35;8.70;;;6.50;;
35847;SDS011;22332;51.954;20.118;2022-08-19T13:54:43;8.10;;;6.20;;
35847;SDS011;22332;51.954;20.118;2022-08-19T13:57:50;7.00;;;6.30;;
35847;SDS011;22332;51.954;20.118;2022-08-19T14:00:56;6.90;;;6.00;;
35847;SDS011;22332;51.954;20.118;2022-08-19T14:04:03;6.60;;;5.90;;
35847;SDS011;22332;51.954;20.118;2022-08-19T14:07:09;6.90;;;6.00;;
35847;SDS011;22332;51.954;20.118;2022-08-19T14:10:15;7.80;;;7.00;;
35847;SDS011;22332;51.954;20.118;2022-08-19T14:13:22;7.10;;;5.90;;
35847;SDS011;22332;51.954;20.118;2022-08-19T14:16:28;6.80;;;6.10;;
35847;SDS011;22332;51.954;20.118;2022-08-19T14:19:34;7.20;;;6.40;;
35847;SDS011;22332;51.954;20.118;2022-08-19T14:22:40;6.80;;;6.20;;
35847;SDS011;22332;51.954;20.118;2022-08-19T14:25:46;7.20;;;6.30;;
35847;SDS011;22332;51.954;20.118;2022-08-19T14:28:52;10.70;;;6.30;;
35847;SDS011;22332;51.954;20.118;2022-08-19T14:32:03;10.00;;;5.80;;
35847;SDS011;22332;51.954;20.118;2022-08-19T14:35:10;6.40;;;5.70;;
35847;SDS011;22332;51.954;20.118;2022-08-19T14:38:17;6.80;;;6.10;;
35847;SDS011;22332;51.954;20.118;2022-08-19T14:41:23;8.70;;;6.30;;
35847;SDS011;22332;51.954;20.118;2022-08-19T14:44:32;7.70;;;6.70;;
35847;SDS011;22332;51.954;20.118;2022-08-19T14:47:38;6.80;;;6.10;;
35847;SDS011;22332;51.954;20.118;2022-08-19T14:50:43;10.70;;;6.20;;
35847;SDS011;22332;51.954;20.118;2022-08-19T14:53:49;7.80;;;6.40;;
35847;SDS011;22332;51.954;20.118;2022-08-19T14:56:55;7.10;;;6.40;;
35847;SDS011;22332;51.954;20.118;2022-08-19T15:00:01;7.60;;;6.60;;
35847;SDS011;22332;51.954;20.118;2022-08-19T15:03:07;6.90;;;6.30;;
35847;SDS011;22332;51.954;20.118;2022-08-19T15:06:13;6.60;;;6.00;;
35847;SDS011;22332;51.954;20.118;2022-08-19T15:09:19;8.40;;;6.60;;
35847;SDS011;22332;51.954;20.118;2022-08-19T15:12:24;7.30;;;6.60;;
35847;SDS011;22332;51.954;20.118;2022-08-19T15:15:30;8.00;;;6.60;;
35847;SDS011;22332;51.954;20.118;2022-08-19T15:18:35;6.90;;;6.20;;
35847;SDS011;22332;51.954;20.118;2022-08-19T15:21:40;7.50;;;6.30;;
35847;SDS011;22332;51.954;20.118;2022-08-19T15:24:46;9.00;;;6.50;;
35847;SDS011;22332;51.954;20.118;2022-08-19T15:27:52;7.40;;;6.20;;
35847;SDS011;22332;51.954;20.118;2022-08-19T15:30:57;7.60;;;6.40;;
35847;SDS011;22332;51.954;20.118;2022-08-19T15:34:03;7.70;;;6.40;;
35847;SDS011;22332;51.954;20.118;2022-08-19T15:37:09;7.30;;;6.70;;
35847;SDS011;22332;51.954;20.118;2022-08-19T15:40:14;8.10;;;6.60;;
35847;SDS011;22332;51.954;20.118;2022-08-19T15:43:20;7.20;;;6.40;;
35847;SDS011;22332;51.954;20.118;2022-08-19T15:46:26;7.90;;;6.40;;
35847;SDS011;22332;51.954;20.118;2022-08-19T15:49:33;7.00;;;6.30;;
35847;SDS011;22332;51.954;20.118;2022-08-19T15:52:38;7.40;;;6.60;;
35847;SDS011;22332;51.954;20.118;2022-08-19T15:55:50;7.80;;;6.80;;
35847;SDS011;22332;51.954;20.118;2022-08-19T15:58:55;7.40;;;6.70;;
35847;SDS011;22332;51.954;20.118;2022-08-19T16:02:19;7.40;;;6.70;;
35847;SDS011;22332;51.954;20.118;2022-08-19T16:05:44;7.90;;;6.80;;
35847;SDS011;22332;51.954;20.118;2022-08-19T16:09:08;10.30;;;6.60;;
35847;SDS011;22332;51.954;20.118;2022-08-19T16:12:14;9.00;;;6.90;;
35847;SDS011;22332;51.954;20.118;2022-08-19T16:15:20;7.80;;;7.10;;
35847;SDS011;22332;51.954;20.118;2022-08-19T16:18:26;7.80;;;7.00;;
35847;SDS011;22332;51.954;20.118;2022-08-19T16:21:32;7.50;;;6.80;;
35847;SDS011;22332;51.954;20.118;2022-08-19T16:24:41;7.90;;;7.10;;
35847;SDS011;22332;51.954;20.118;2022-08-19T16:27:46;7.60;;;6.90;;
35847;SDS011;22332;51.954;20.118;2022-08-19T16:30:52;7.60;;;6.90;;
35847;SDS011;22332;51.954;20.118;2022-08-19T16:33:57;7.20;;;6.50;;
35847;SDS011;22332;51.954;20.118;2022-08-19T16:37:03;8.00;;;6.70;;
35847;SDS011;22332;51.954;20.118;2022-08-19T16:40:09;8.60;;;7.00;;
35847;SDS011;22332;51.954;20.118;2022-08-19T16:43:15;7.20;;;6.40;;
35847;SDS011;22332;51.954;20.118;2022-08-19T16:46:22;8.90;;;6.70;;
35847;SDS011;22332;51.954;20.118;2022-08-19T16:49:29;7.60;;;6.70;;
35847;SDS011;22332;51.954;20.118;2022-08-19T16:52:35;7.10;;;6.40;;
35847;SDS011;22332;51.954;20.118;2022-08-19T16:55:41;9.50;;;7.40;;
35847;SDS011;22332;51.954;20.118;2022-08-19T16:58:46;8.00;;;6.70;;
35847;SDS011;22332;51.954;20.118;2022-08-19T17:01:52;9.50;;;8.40;;
35847;SDS011;22332;51.954;20.118;2022-08-19T17:04:58;9.60;;;8.00;;
35847;SDS011;22332;51.954;20.118;2022-08-19T17:08:04;9.50;;;8.60;;
35847;SDS011;22332;51.954;20.118;2022-08-19T17:11:09;12.20;;;10.90;;
35847;SDS011;22332;51.954;20.118;2022-08-19T17:14:15;12.50;;;10.20;;
35847;SDS011;22332;51.954;20.118;2022-08-19T17:17:21;11.10;;;9.00;;
35847;SDS011;22332;51.954;20.118;2022-08-19T17:20:26;9.10;;;8.00;;
35847;SDS011;22332;51.954;20.118;2022-08-19T17:23:32;8.80;;;7.90;;
35847;SDS011;22332;51.954;20.118;2022-08-19T17:26:37;9.70;;;8.70;;
35847;SDS011;22332;51.954;20.118;2022-08-19T17:29:43;10.10;;;8.40;;
35847;SDS011;22332;51.954;20.118;2022-08-19T17:32:48;8.60;;;7.70;;
35847;SDS011;22332;51.954;20.118;2022-08-19T17:35:54;8.50;;;7.60;;
35847;SDS011;22332;51.954;20.118;2022-08-19T17:39:00;11.00;;;9.20;;
35847;SDS011;22332;51.954;20.118;2022-08-19T17:42:07;10.90;;;8.80;;
35847;SDS011;22332;51.954;20.118;2022-08-19T17:45:13;10.30;;;8.40;;
35847;SDS011;22332;51.954;20.118;2022-08-19T17:48:19;11.20;;;9.00;;
35847;SDS011;22332;51.954;20.118;2022-08-19T17:51:36;12.80;;;9.60;;
35847;SDS011;22332;51.954;20.118;2022-08-19T17:54:45;16.30;;;12.10;;
35847;SDS011;22332;51.954;20.118;2022-08-19T17:57:50;14.80;;;10.60;;
35847;SDS011;22332;51.954;20.118;2022-08-19T18:00:56;11.30;;;8.70;;
35847;SDS011;22332;51.954;20.118;2022-08-19T18:04:04;9.70;;;7.70;;
35847;SDS011;22332;51.954;20.118;2022-08-19T18:07:11;9.30;;;7.40;;
35847;SDS011;22332;51.954;20.118;2022-08-19T18:10:18;9.10;;;7.20;;
35847;SDS011;22332;51.954;20.118;2022-08-19T18:13:25;9.40;;;7.10;;
35847;SDS011;22332;51.954;20.118;2022-08-19T18:16:31;8.40;;;7.20;;
35847;SDS011;22332;51.954;20.118;2022-08-19T18:19:39;8.40;;;6.50;;
35847;SDS011;22332;51.954;20.118;2022-08-19T18:22:47;7.10;;;6.30;;
35847;SDS011;22332;51.954;20.118;2022-08-19T18:25:53;8.90;;;7.20;;